LDSP/SPU METAR and TAF weather

Enter ICAO airport designator
Station Type Date Time Source
LDSP METAR 2018/12/18 19:00 UTC NOAA

LDSP 181900Z 32009KT 290V360 CAVOK 06/M05 Q1024 NOSIG


Station Type Date Time Source
LDSP Decoded METAR 2018/12/18 19:00 UTC NOAA

Split / Resnik, Croatia (LDSP) 43-32N 016-18E 21M
Dec 18, 2018 - 02:00 PM EST / 2018.12.18 1900 UTC
Wind: from the NW (320 degrees) at 10 MPH (9 KT) (direction variable):0
Visibility: greater than 7 mile(s):0
Temperature: 42 F (6 C)
Dew Point: 23 F (-5 C)
Relative Humidity: 45%
Pressure (altimeter): 30.24 in. Hg (1024 hPa)
ob: LDSP 181900Z 32009KT 290V360 CAVOK 06/M05 Q1024 NOSIG
cycle: 19

Station Type Date Time Source
LDSP TAF 2018/12/18 18:27 UTC NOAA

TAF LDSP 181725Z 1818/1918 32009KT CAVOK TX10/1913Z TN00/1906Z PROB30
TEMPO 1818/1900 02008KT


Example: see airport list